ENG CAT
Escuela de Pilotos
Teléfono 972234126 972 23 41 26
 
Aerbrava - Meteorología

Información meteorológica aeronáutica

 

En este apartado aparece la información meteorológica aeronáutica que es utilizada en las prácticas de los alumnos de la Escuela de Pilotos de nuestro centro durante su formación, por lo que puede no ser actual y se debería utilizar por su propia cuenta y riesgo. AERBRAVA no se hace responsable de su uso.

 

TIEMPO ACTUAL

Satélite Meteorológico

sat24.com

Servei Meteorològic de Catalunya

 

LEGE 262100Z 30003KT 270V340 CAVOK 04/03 Q1022
LEGE 262030Z 02005KT CAVOK 03/02 Q1022
LEGE 262000Z 35003KT 9999 FEW020 05/04 Q1022
LEGE 261930Z 02003KT CAVOK 03/02 Q1021
LEGE 261900Z 01003KT CAVOK 06/04 Q1022
LEGE 261830Z VRB02KT CAVOK 07/04 Q1021
LEGE 261800Z 15003KT CAVOK 07/04 Q1021
TAF LEGE 261700Z 2618/2718 VRB04KT 9999 FEW030 TX18/2713Z TN01/2706Z

Aviation Weather

 
Aerbrava en el facebook Aerbrava en el twitter Aerbrava instagram Aerbrava en el youtube Aerbrava tumblr Aerbrava flikr Aerbrava pinterest

¡html Vàlid! ¡CSS Vàlid!